createdAt,value
2024-05-09T00:03:38.343Z,986.64
2024-05-09T00:15:38.913Z,986.79
2024-05-09T00:27:39.238Z,986.71
2024-05-09T00:39:39.721Z,986.60
2024-05-09T00:51:40.174Z,986.52
2024-05-09T01:03:40.771Z,986.47
2024-05-09T01:15:41.097Z,986.50
2024-05-09T01:27:42.713Z,986.66
2024-05-09T01:39:41.950Z,986.76
2024-05-09T01:51:42.436Z,986.87
2024-05-09T02:03:43.079Z,986.88
2024-05-09T02:15:43.336Z,986.79
2024-05-09T02:27:43.813Z,986.76
2024-05-09T02:39:44.247Z,986.91
2024-05-09T02:51:44.707Z,987.04
2024-05-09T03:03:45.231Z,987.25
2024-05-09T03:15:45.610Z,987.27
2024-05-09T03:27:46.065Z,987.32
2024-05-09T03:39:46.515Z,987.43
2024-05-09T03:51:46.980Z,987.49
2024-05-09T04:03:47.671Z,987.62
2024-05-09T04:15:47.861Z,987.72
2024-05-09T04:27:48.318Z,987.78
2024-05-09T04:39:48.773Z,987.80
2024-05-09T04:51:49.228Z,987.82
2024-05-09T05:03:49.847Z,987.70
2024-05-09T05:15:50.105Z,987.52
2024-05-09T05:27:50.553Z,986.00
2024-05-09T05:39:51.062Z,984.28
2024-05-09T05:51:51.643Z,984.19
2024-05-09T06:03:52.071Z,984.30
2024-05-09T06:15:52.426Z,984.33
2024-05-09T06:27:52.855Z,984.62
2024-05-09T06:39:53.310Z,984.56
2024-05-09T06:51:53.761Z,984.64
2024-05-09T07:03:54.250Z,984.50
2024-05-09T07:15:54.693Z,984.64
2024-05-09T07:27:55.143Z,984.65
2024-05-09T07:39:55.592Z,984.62
2024-05-09T07:53:21.825Z,984.68
2024-05-09T08:03:56.730Z,984.65
2024-05-09T08:15:56.981Z,984.62
2024-05-09T08:39:57.835Z,984.80
2024-05-09T08:51:58.324Z,984.91
2024-05-09T09:03:58.890Z,984.85
2024-05-09T09:15:59.739Z,984.84
2024-05-09T09:27:59.799Z,984.82
2024-05-09T09:40:00.222Z,984.79
2024-05-09T09:52:00.983Z,984.66
2024-05-09T10:04:01.249Z,984.64
2024-05-09T10:16:01.524Z,984.76
2024-05-09T10:28:01.991Z,984.73
2024-05-09T10:40:02.717Z,984.39
2024-05-09T10:52:02.950Z,984.48
2024-05-09T11:04:03.539Z,984.31
2024-05-09T11:16:03.899Z,984.30
2024-05-09T11:28:04.214Z,984.04
2024-05-09T11:40:07.070Z,983.98
2024-05-09T11:52:05.136Z,983.85
2024-05-09T12:04:05.888Z,983.94
2024-05-09T12:16:06.156Z,983.72
2024-05-09T12:28:06.659Z,983.77
2024-05-09T12:40:12.673Z,983.65
2024-05-09T12:52:07.572Z,983.59
2024-05-09T13:04:08.110Z,983.59
2024-05-09T13:16:08.346Z,983.49
2024-05-09T13:28:08.810Z,983.36
2024-05-09T13:40:12.135Z,983.23
2024-05-09T13:52:09.799Z,983.18
2024-05-09T14:04:10.340Z,983.18
2024-05-09T14:16:10.723Z,983.02
2024-05-09T14:28:11.193Z,983.03
2024-05-09T14:40:21.617Z,982.95
2024-05-09T14:52:12.102Z,982.84
2024-05-09T15:04:12.485Z,982.80
2024-05-09T15:16:12.960Z,982.84
2024-05-09T15:28:13.329Z,982.67
2024-05-09T15:40:18.838Z,982.57
2024-05-09T15:52:14.325Z,982.57
2024-05-09T16:04:14.833Z,982.47
2024-05-09T16:16:15.193Z,982.52
2024-05-09T16:28:15.624Z,982.56
2024-05-09T16:40:25.214Z,982.58
2024-05-09T16:52:16.713Z,982.44
2024-05-09T17:04:17.150Z,982.47
2024-05-09T17:16:17.467Z,982.51
2024-05-09T17:28:17.921Z,982.55
2024-05-09T17:40:27.159Z,982.60
2024-05-09T17:52:18.970Z,982.74
2024-05-09T18:04:19.353Z,982.75
2024-05-09T18:16:20.041Z,982.79
2024-05-09T18:28:20.201Z,982.91
2024-05-09T18:40:27.405Z,983.01
2024-05-09T18:52:21.128Z,983.14
2024-05-09T19:04:21.714Z,983.40
2024-05-09T19:16:22.066Z,983.44
2024-05-09T19:28:22.566Z,983.57
2024-05-09T19:40:28.853Z,983.74
2024-05-09T19:52:23.389Z,983.81
2024-05-09T20:04:23.938Z,983.94
2024-05-09T20:16:24.357Z,984.02
2024-05-09T20:28:24.752Z,984.12
2024-05-09T20:40:31.222Z,984.11
2024-05-09T20:52:25.630Z,984.34
2024-05-09T21:04:26.198Z,984.55
2024-05-09T21:16:26.590Z,984.48
2024-05-09T21:28:27.148Z,984.78
2024-05-09T21:40:34.011Z,984.66
2024-05-09T21:52:27.925Z,984.79
2024-05-09T22:04:28.535Z,984.84
2024-05-09T22:16:28.928Z,985.00
2024-05-09T22:28:29.330Z,985.14
2024-05-09T22:40:38.888Z,985.15
2024-05-09T22:52:30.164Z,985.12
2024-05-09T23:04:30.690Z,985.28
2024-05-09T23:16:31.065Z,985.27
2024-05-09T23:28:31.660Z,985.14
2024-05-09T23:52:32.424Z,985.39
